createdAt,value
2023-02-24T00:02:01.575Z,15.30
2023-02-24T00:04:36.331Z,14.80
2023-02-24T00:07:03.377Z,14.60
2023-02-24T00:09:33.173Z,15.77
2023-02-24T00:12:08.901Z,14.60
2023-02-24T00:14:39.104Z,14.37
2023-02-24T00:17:10.379Z,13.53
2023-02-24T00:19:38.425Z,13.17
2023-02-24T00:22:07.996Z,12.97
2023-02-24T00:24:35.785Z,14.27
2023-02-24T00:27:08.593Z,12.87
2023-02-24T00:29:37.660Z,13.43
2023-02-24T00:32:07.349Z,14.93
2023-02-24T00:34:37.496Z,14.90
2023-02-24T00:37:09.028Z,15.90
2023-02-24T00:39:41.293Z,13.90
2023-02-24T00:42:08.657Z,15.80
2023-02-24T00:44:39.075Z,14.40
2023-02-24T00:47:10.487Z,14.07
2023-02-24T00:49:42.468Z,13.63
2023-02-24T00:52:13.704Z,13.23
2023-02-24T00:54:45.946Z,13.20
2023-02-24T00:57:14.316Z,13.13
2023-02-24T00:59:41.342Z,13.50
2023-02-24T01:02:08.320Z,13.77
2023-02-24T01:04:37.732Z,14.33
2023-02-24T01:07:10.483Z,15.10
2023-02-24T01:09:41.080Z,15.83
2023-02-24T01:12:29.818Z,14.93
2023-02-24T01:14:57.156Z,14.77
2023-02-24T01:17:25.351Z,14.00
2023-02-24T01:19:52.741Z,14.10
2023-02-24T01:22:21.122Z,15.03
2023-02-24T01:24:48.747Z,15.20
2023-02-24T01:27:18.947Z,14.73
2023-02-24T01:29:49.679Z,14.50
2023-02-24T01:32:21.390Z,14.60
2023-02-24T01:34:52.189Z,15.13
2023-02-24T01:37:20.549Z,15.00
2023-02-24T01:39:48.486Z,14.43
2023-02-24T01:42:20.185Z,17.50
2023-02-24T01:44:47.615Z,19.90
2023-02-24T01:47:20.477Z,19.00
2023-02-24T01:49:50.557Z,18.43
2023-02-24T01:52:30.529Z,19.67
2023-02-24T01:55:08.881Z,18.43
2023-02-24T01:57:41.739Z,19.87
2023-02-24T02:00:19.503Z,20.10
2023-02-24T02:02:52.846Z,20.53
2023-02-24T02:05:21.016Z,18.67
2023-02-24T02:07:50.121Z,19.50
2023-02-24T02:10:18.540Z,20.70
2023-02-24T02:12:46.329Z,19.87
2023-02-24T02:15:20.206Z,20.57
2023-02-24T02:18:11.894Z,19.47
2023-02-24T02:21:18.853Z,19.87
2023-02-24T02:23:55.301Z,18.00
2023-02-24T02:27:04.352Z,18.43
2023-02-24T02:29:58.983Z,18.13
2023-02-24T02:33:01.917Z,17.13
2023-02-24T02:35:38.036Z,19.43
2023-02-24T02:38:25.868Z,16.77
2023-02-24T02:41:22.303Z,15.97
2023-02-24T02:44:07.779Z,16.03
2023-02-24T02:46:51.209Z,16.17
2023-02-24T02:49:22.096Z,15.90
2023-02-24T02:51:54.145Z,16.40
2023-02-24T02:54:52.980Z,14.20
2023-02-24T02:57:30.952Z,16.03
2023-02-24T03:00:21.338Z,16.13
2023-02-24T03:02:56.498Z,14.47
2023-02-24T03:05:31.625Z,15.07
2023-02-24T03:08:04.726Z,16.40
2023-02-24T03:10:34.340Z,15.37
2023-02-24T03:13:05.323Z,16.20
2023-02-24T03:15:34.151Z,14.87
2023-02-24T03:18:10.368Z,14.70
2023-02-24T03:21:07.620Z,15.17
2023-02-24T03:23:50.907Z,13.03
2023-02-24T03:26:58.347Z,14.50
2023-02-24T03:29:44.457Z,14.80
2023-02-24T03:32:33.301Z,13.53
2023-02-24T03:35:17.113Z,14.57
2023-02-24T03:37:45.142Z,15.10
2023-02-24T03:40:14.943Z,15.13
2023-02-24T03:42:47.794Z,14.37
2023-02-24T03:45:16.311Z,14.90
2023-02-24T03:47:45.629Z,14.33
2023-02-24T03:50:19.518Z,13.87
2023-02-24T03:53:22.438Z,15.53
2023-02-24T03:56:05.588Z,13.90
2023-02-24T03:58:52.680Z,14.60
2023-02-24T04:01:39.483Z,14.20
2023-02-24T04:04:38.156Z,16.00
2023-02-24T04:07:40.331Z,17.43
2023-02-24T04:10:22.042Z,15.13
2023-02-24T04:13:43.354Z,14.40
2023-02-24T04:16:44.377Z,13.17
2023-02-24T04:19:18.978Z,14.50
2023-02-24T04:21:48.922Z,13.47
2023-02-24T04:24:20.918Z,14.83
2023-02-24T04:26:49.420Z,13.10
2023-02-24T04:29:22.940Z,12.80
2023-02-24T04:32:01.333Z,15.17
2023-02-24T04:34:32.407Z,14.67
2023-02-24T04:37:02.228Z,15.50
2023-02-24T04:39:31.620Z,15.63
2023-02-24T04:41:59.186Z,13.57
2023-02-24T04:44:28.167Z,15.00
2023-02-24T04:46:56.040Z,14.50
2023-02-24T04:49:22.994Z,13.97
2023-02-24T04:51:51.602Z,15.20
2023-02-24T04:54:20.713Z,13.37
2023-02-24T04:56:53.974Z,14.50
2023-02-24T04:59:22.653Z,15.07
2023-02-24T05:01:52.249Z,15.57
2023-02-24T05:04:19.725Z,13.03
2023-02-24T05:06:47.192Z,13.43
2023-02-24T05:09:17.984Z,14.07
2023-02-24T05:11:51.637Z,15.00
2023-02-24T05:14:24.928Z,14.30
2023-02-24T05:16:52.060Z,13.80
2023-02-24T05:19:38.950Z,15.23
2023-02-24T05:22:11.623Z,13.80
2023-02-24T05:24:38.684Z,16.57
2023-02-24T05:27:05.596Z,14.90
2023-02-24T05:29:34.981Z,14.37
2023-02-24T05:32:04.136Z,15.50
2023-02-24T05:34:33.173Z,14.83
2023-02-24T05:37:04.561Z,15.43
2023-02-24T05:39:31.548Z,15.53
2023-02-24T05:41:58.526Z,14.50
2023-02-24T05:44:27.148Z,15.00
2023-02-24T05:46:58.504Z,13.77
2023-02-24T05:49:34.001Z,13.80
2023-02-24T05:52:08.025Z,14.30
2023-02-24T05:54:41.771Z,16.43
2023-02-24T05:57:13.043Z,16.00
2023-02-24T05:59:44.687Z,15.57
2023-02-24T06:02:15.815Z,14.93
2023-02-24T06:04:50.685Z,16.73
2023-02-24T06:07:24.968Z,16.60
2023-02-24T06:09:58.714Z,16.17
2023-02-24T06:12:30.181Z,16.07
2023-02-24T06:15:00.236Z,14.90
2023-02-24T06:17:28.431Z,16.63
2023-02-24T06:19:55.625Z,16.10
2023-02-24T06:22:25.845Z,31.07
2023-02-24T06:24:55.236Z,41.20
2023-02-24T06:27:24.714Z,55.80
2023-02-24T06:29:53.892Z,51.63
2023-02-24T06:32:25.002Z,40.17
2023-02-24T06:34:53.797Z,19.17
2023-02-24T06:37:22.728Z,17.43
2023-02-24T06:39:49.697Z,16.60
2023-02-24T06:42:16.661Z,15.93
2023-02-24T06:44:43.722Z,16.57
2023-02-24T06:47:16.270Z,18.20
2023-02-24T06:49:43.466Z,16.73
2023-02-24T06:52:11.664Z,19.10
2023-02-24T06:54:38.803Z,17.83
2023-02-24T06:57:05.870Z,19.13
2023-02-24T06:59:32.831Z,17.50
2023-02-24T07:02:04.511Z,18.13
2023-02-24T07:04:41.858Z,16.73
2023-02-24T07:07:08.895Z,16.60
2023-02-24T07:09:35.949Z,17.93
2023-02-24T07:12:04.566Z,18.87
2023-02-24T07:14:31.728Z,18.17
2023-02-24T07:17:00.163Z,18.33
2023-02-24T07:19:32.369Z,17.53
2023-02-24T07:22:03.585Z,17.53
2023-02-24T07:24:36.184Z,16.80
2023-02-24T07:27:12.126Z,17.00
2023-02-24T07:29:39.658Z,18.37
2023-02-24T07:32:09.293Z,18.70
2023-02-24T07:34:40.009Z,17.73
2023-02-24T07:37:09.068Z,17.40
2023-02-24T07:39:39.109Z,18.10
2023-02-24T07:42:09.524Z,18.40
2023-02-24T07:44:36.671Z,17.03
2023-02-24T07:47:08.105Z,17.73
2023-02-24T07:49:39.516Z,18.53
2023-02-24T07:52:08.227Z,18.90
2023-02-24T07:54:37.028Z,17.03
2023-02-24T07:57:05.811Z,18.40
2023-02-24T07:59:38.030Z,19.20
2023-02-24T08:02:07.624Z,18.63
2023-02-24T08:04:36.426Z,16.93
2023-02-24T08:07:14.469Z,23.50
2023-02-24T08:09:45.265Z,42.50
2023-02-24T08:12:22.492Z,29.70
2023-02-24T08:14:54.041Z,47.70
2023-02-24T08:17:26.937Z,32.23
2023-02-24T08:20:14.184Z,17.80
2023-02-24T08:22:52.231Z,14.77
2023-02-24T08:25:25.313Z,26.63
2023-02-24T08:28:12.995Z,47.20
2023-02-24T08:30:46.941Z,33.73
2023-02-24T08:33:21.317Z,19.30
2023-02-24T08:36:01.453Z,15.50
2023-02-24T08:38:42.577Z,14.60
2023-02-24T08:41:18.542Z,15.40
2023-02-24T08:43:47.881Z,14.90
2023-02-24T08:46:21.118Z,15.67
2023-02-24T08:48:50.449Z,14.73
2023-02-24T08:51:34.995Z,14.73
2023-02-24T08:54:11.190Z,12.80
2023-02-24T08:56:43.701Z,14.27
2023-02-24T08:59:29.250Z,15.50
2023-02-24T09:02:17.343Z,91.70
2023-02-24T09:04:53.040Z,20.87
2023-02-24T09:07:35.569Z,14.20
2023-02-24T09:10:23.056Z,14.13
2023-02-24T09:12:53.540Z,12.70
2023-02-24T09:15:22.708Z,15.57
2023-02-24T09:17:50.119Z,15.13
2023-02-24T09:20:25.914Z,15.03
2023-02-24T09:23:05.724Z,15.10
2023-02-24T09:25:44.741Z,15.43
2023-02-24T09:28:20.530Z,14.40
2023-02-24T09:30:58.162Z,14.50
2023-02-24T09:33:27.785Z,13.97
2023-02-24T09:36:12.791Z,12.43
2023-02-24T09:39:01.654Z,12.60
2023-02-24T09:41:56.627Z,13.10
2023-02-24T09:44:38.430Z,15.90
2023-02-24T09:47:19.943Z,18.70
2023-02-24T09:49:56.255Z,78.40
2023-02-24T09:52:42.158Z,26.37
2023-02-24T09:55:38.738Z,14.63
2023-02-24T09:58:41.834Z,13.37
2023-02-24T10:01:34.377Z,12.87
2023-02-24T10:04:29.568Z,12.33
2023-02-24T10:07:03.050Z,12.03
2023-02-24T10:09:56.099Z,13.80
2023-02-24T10:12:40.415Z,12.23
2023-02-24T10:15:19.200Z,13.30
2023-02-24T10:18:29.111Z,12.27
2023-02-24T10:21:20.632Z,12.40
2023-02-24T10:24:16.405Z,12.97
2023-02-24T10:27:08.775Z,13.40
2023-02-24T10:30:01.304Z,13.90
2023-02-24T10:32:50.158Z,14.97
2023-02-24T10:35:26.071Z,77.00
2023-02-24T10:37:54.144Z,66.80
2023-02-24T10:40:44.731Z,49.47
2023-02-24T10:43:18.497Z,18.43
2023-02-24T10:45:47.235Z,13.20
2023-02-24T10:48:43.098Z,12.97
2023-02-24T10:51:30.395Z,12.17
2023-02-24T10:54:33.528Z,14.20
2023-02-24T10:57:18.243Z,12.67
2023-02-24T11:00:18.517Z,12.80
2023-02-24T11:03:09.869Z,14.03
2023-02-24T11:06:03.648Z,13.90
2023-02-24T11:08:48.126Z,12.50
2023-02-24T11:11:29.598Z,14.40
2023-02-24T11:14:20.416Z,14.40
2023-02-24T11:17:14.900Z,14.77
2023-02-24T11:20:10.888Z,14.60
2023-02-24T11:22:43.559Z,13.87
2023-02-24T11:25:23.716Z,20.00
2023-02-24T11:27:52.292Z,28.50
2023-02-24T11:30:31.158Z,17.20
2023-02-24T11:33:36.540Z,13.93
2023-02-24T11:36:45.168Z,12.90
2023-02-24T11:39:49.167Z,12.73
2023-02-24T11:42:31.966Z,12.47
2023-02-24T11:45:13.140Z,13.23
2023-02-24T11:47:50.686Z,13.00
2023-02-24T11:50:36.924Z,10.43
2023-02-24T11:53:15.294Z,11.80
2023-02-24T11:55:46.942Z,11.70
2023-02-24T11:58:58.817Z,11.90
2023-02-24T12:01:32.570Z,11.50
2023-02-24T12:04:26.584Z,12.43
2023-02-24T12:07:08.886Z,17.90
2023-02-24T12:09:48.184Z,12.60
2023-02-24T12:12:28.674Z,13.43
2023-02-24T12:15:14.150Z,15.43
2023-02-24T12:18:27.885Z,14.47
2023-02-24T12:21:06.739Z,14.03
2023-02-24T12:23:37.561Z,14.20
2023-02-24T12:26:42.953Z,14.27
2023-02-24T12:30:05.856Z,15.23
2023-02-24T12:33:43.947Z,14.33
2023-02-24T12:36:25.177Z,14.47
2023-02-24T12:39:18.701Z,16.77
2023-02-24T12:42:03.623Z,17.07
2023-02-24T12:44:41.794Z,16.20
2023-02-24T12:47:25.543Z,15.23
2023-02-24T12:50:28.951Z,17.20
2023-02-24T12:53:19.293Z,15.60
2023-02-24T12:56:04.237Z,16.10
2023-02-24T12:58:37.012Z,14.50
2023-02-24T13:01:38.033Z,15.80
2023-02-24T13:04:39.505Z,17.90
2023-02-24T13:07:22.762Z,14.90
2023-02-24T13:10:24.000Z,14.73
2023-02-24T13:13:31.658Z,15.13
2023-02-24T13:16:02.926Z,16.23
2023-02-24T13:18:33.862Z,15.90
2023-02-24T13:21:22.823Z,15.43
2023-02-24T13:24:24.093Z,15.23
2023-02-24T13:26:51.051Z,16.67
2023-02-24T13:29:18.094Z,16.87
2023-02-24T13:31:49.566Z,17.80
2023-02-24T13:34:34.265Z,15.67
2023-02-24T13:37:01.272Z,15.77
2023-02-24T13:39:46.691Z,17.17
2023-02-24T13:42:27.114Z,17.07
2023-02-24T13:45:22.021Z,17.50
2023-02-24T13:48:25.858Z,17.57
2023-02-24T13:51:02.353Z,16.57
2023-02-24T13:54:17.662Z,17.57
2023-02-24T13:56:53.713Z,15.77
2023-02-24T14:00:25.414Z,18.37
2023-02-24T14:02:53.385Z,17.70
2023-02-24T14:05:35.781Z,18.30
2023-02-24T14:08:04.598Z,17.03
2023-02-24T14:10:34.633Z,17.43
2023-02-24T14:13:20.696Z,16.37
2023-02-24T14:15:48.157Z,17.30
2023-02-24T14:18:23.508Z,16.93
2023-02-24T14:20:53.120Z,18.60
2023-02-24T14:23:27.035Z,19.80
2023-02-24T14:26:12.481Z,18.27
2023-02-24T14:28:42.011Z,19.83
2023-02-24T14:31:13.614Z,21.80
2023-02-24T14:33:46.045Z,20.23
2023-02-24T14:36:24.994Z,20.50
2023-02-24T14:39:15.983Z,31.80
2023-02-24T14:41:44.602Z,27.53
2023-02-24T14:44:26.331Z,20.83
2023-02-24T14:46:59.874Z,19.47
2023-02-24T14:49:33.454Z,22.03
2023-02-24T14:52:36.382Z,18.73
2023-02-24T14:55:23.414Z,20.77
2023-02-24T14:57:50.493Z,19.37
2023-02-24T15:00:54.342Z,19.90
2023-02-24T15:03:25.776Z,20.80
2023-02-24T15:05:56.300Z,21.50
2023-02-24T15:08:44.664Z,19.83
2023-02-24T15:11:17.475Z,19.30
2023-02-24T15:13:47.501Z,20.17
2023-02-24T15:16:32.314Z,19.77
2023-02-24T15:19:01.452Z,22.27
2023-02-24T15:21:39.441Z,20.40
2023-02-24T15:24:30.881Z,20.50
2023-02-24T15:27:21.653Z,23.50
2023-02-24T15:30:08.609Z,24.07
2023-02-24T15:32:38.062Z,18.70
2023-02-24T15:35:06.122Z,18.93
2023-02-24T15:37:54.933Z,19.20
2023-02-24T15:40:25.187Z,21.40
2023-02-24T15:42:58.922Z,20.60
2023-02-24T15:45:38.573Z,19.03
2023-02-24T15:48:26.884Z,21.33
2023-02-24T15:50:55.766Z,19.83
2023-02-24T15:53:22.722Z,20.20
2023-02-24T15:55:50.472Z,22.37
2023-02-24T15:58:21.694Z,21.37
2023-02-24T16:00:52.400Z,18.93
2023-02-24T16:03:19.670Z,18.80
2023-02-24T16:05:46.638Z,21.17
2023-02-24T16:08:19.624Z,21.70
2023-02-24T16:10:47.320Z,19.80
2023-02-24T16:13:22.018Z,19.30
2023-02-24T16:15:49.946Z,20.50
2023-02-24T16:18:24.134Z,21.47
2023-02-24T16:20:54.609Z,22.60
2023-02-24T16:23:23.968Z,20.50
2023-02-24T16:25:56.027Z,20.00
2023-02-24T16:28:23.997Z,22.37
2023-02-24T16:30:52.110Z,23.80
2023-02-24T16:33:22.513Z,24.93
2023-02-24T16:35:53.346Z,25.17
2023-02-24T16:38:22.375Z,23.50
2023-02-24T16:40:50.200Z,21.70
2023-02-24T16:43:17.264Z,22.40
2023-02-24T16:45:45.972Z,24.77
2023-02-24T16:48:21.971Z,25.00
2023-02-24T16:50:49.426Z,26.93
2023-02-24T16:53:20.520Z,27.10
2023-02-24T16:55:48.263Z,28.07
2023-02-24T16:58:16.290Z,25.43
2023-02-24T17:00:47.200Z,24.20
2023-02-24T17:03:22.620Z,25.50
2023-02-24T17:05:57.724Z,27.40
2023-02-24T17:08:27.183Z,27.40
2023-02-24T17:10:54.282Z,27.07
2023-02-24T17:13:22.453Z,28.10
2023-02-24T17:15:55.376Z,26.70
2023-02-24T17:18:23.799Z,27.00
2023-02-24T17:20:50.822Z,29.97
2023-02-24T17:23:18.277Z,28.00
2023-02-24T17:25:47.531Z,28.63
2023-02-24T17:28:14.551Z,29.40
2023-02-24T17:30:41.710Z,28.50
2023-02-24T17:33:08.840Z,30.30
2023-02-24T17:35:36.125Z,33.10
2023-02-24T17:38:03.180Z,31.50
2023-02-24T17:40:30.326Z,30.63
2023-02-24T17:42:57.504Z,32.63
2023-02-24T17:45:24.922Z,28.80
2023-02-24T17:47:53.740Z,28.37
2023-02-24T17:50:20.851Z,26.30
2023-02-24T17:52:48.071Z,25.50
2023-02-24T17:55:15.007Z,28.87
2023-02-24T17:57:42.184Z,27.23
2023-02-24T18:00:12.478Z,27.00
2023-02-24T18:02:39.978Z,27.10
2023-02-24T18:05:08.285Z,30.80
2023-02-24T18:07:35.303Z,33.40
2023-02-24T18:10:02.753Z,30.17
2023-02-24T18:12:29.771Z,28.90
2023-02-24T18:15:07.850Z,27.73
2023-02-24T18:17:38.327Z,27.30
2023-02-24T18:20:08.211Z,27.30
2023-02-24T18:22:35.936Z,28.57
2023-02-24T18:25:03.040Z,27.37
2023-02-24T18:27:29.992Z,26.47
2023-02-24T18:29:56.885Z,29.77
2023-02-24T18:32:24.373Z,27.67
2023-02-24T18:34:51.427Z,29.27
2023-02-24T18:37:18.416Z,29.47
2023-02-24T18:39:45.362Z,29.17
2023-02-24T18:42:12.399Z,30.83
2023-02-24T18:44:39.382Z,31.00
2023-02-24T18:47:09.536Z,29.73
2023-02-24T18:49:37.340Z,29.77
2023-02-24T18:52:05.516Z,28.60
2023-02-24T18:54:34.143Z,31.20
2023-02-24T18:57:02.146Z,31.20
2023-02-24T18:59:29.612Z,29.37
2023-02-24T19:01:56.972Z,29.87
2023-02-24T19:04:24.917Z,30.90
2023-02-24T19:06:52.050Z,33.33
2023-02-24T19:09:21.797Z,29.07
2023-02-24T19:11:50.223Z,30.10
2023-02-24T19:14:17.712Z,30.73
2023-02-24T19:16:45.394Z,29.60
2023-02-24T19:19:16.760Z,31.83
2023-02-24T19:21:45.518Z,30.20
2023-02-24T19:24:14.010Z,30.83
2023-02-24T19:26:43.900Z,30.47
2023-02-24T19:29:11.533Z,29.63
2023-02-24T19:31:39.180Z,29.50
2023-02-24T19:34:11.054Z,30.70
2023-02-24T19:36:38.762Z,32.53
2023-02-24T19:39:09.658Z,30.60
2023-02-24T19:41:37.892Z,30.47
2023-02-24T19:44:04.962Z,29.37
2023-02-24T19:46:34.054Z,30.70
2023-02-24T19:49:01.712Z,28.77
2023-02-24T19:51:29.623Z,29.13
2023-02-24T19:53:59.437Z,28.00
2023-02-24T19:56:32.784Z,28.47
2023-02-24T19:59:01.929Z,25.83
2023-02-24T20:01:30.259Z,24.77
2023-02-24T20:04:01.005Z,24.83
2023-02-24T20:06:40.783Z,23.00
2023-02-24T20:09:11.683Z,22.90
2023-02-24T20:11:39.819Z,22.77
2023-02-24T20:14:08.821Z,24.07
2023-02-24T20:16:39.102Z,24.83
2023-02-24T20:19:07.443Z,26.03
2023-02-24T20:21:35.734Z,26.10
2023-02-24T20:24:05.125Z,23.80
2023-02-24T20:26:32.746Z,25.10
2023-02-24T20:29:00.689Z,25.90
2023-02-24T20:31:27.951Z,27.80
2023-02-24T20:33:56.446Z,24.80
2023-02-24T20:36:27.507Z,25.17
2023-02-24T20:38:57.823Z,26.13
2023-02-24T20:41:26.706Z,24.30
2023-02-24T20:43:55.235Z,24.03
2023-02-24T20:46:28.847Z,25.30
2023-02-24T20:49:02.553Z,25.70
2023-02-24T20:51:31.125Z,24.97
2023-02-24T20:53:59.212Z,27.63
2023-02-24T20:56:29.646Z,24.97
2023-02-24T20:59:22.582Z,25.73
2023-02-24T21:01:50.942Z,25.00
2023-02-24T21:04:20.695Z,23.30
2023-02-24T21:06:48.481Z,22.60
2023-02-24T21:09:16.057Z,23.03
2023-02-24T21:11:43.146Z,23.50
2023-02-24T21:14:15.710Z,27.67
2023-02-24T21:16:43.076Z,25.57
2023-02-24T21:19:10.189Z,25.43
2023-02-24T21:21:37.102Z,24.80
2023-02-24T21:24:05.791Z,24.63
2023-02-24T21:26:32.955Z,23.93
2023-02-24T21:28:59.953Z,23.87
2023-02-24T21:31:27.559Z,23.30
2023-02-24T21:33:55.672Z,25.30
2023-02-24T21:36:26.697Z,25.57
2023-02-24T21:38:55.178Z,26.40
2023-02-24T21:41:23.734Z,25.80
2023-02-24T21:43:55.422Z,25.30
2023-02-24T21:46:25.953Z,25.80
2023-02-24T21:48:59.543Z,24.17
2023-02-24T21:51:27.840Z,26.33
2023-02-24T21:53:55.221Z,34.80
2023-02-24T21:56:26.477Z,31.30
2023-02-24T21:59:05.945Z,32.37
2023-02-24T22:01:40.408Z,32.83
2023-02-24T22:04:12.234Z,31.50
2023-02-24T22:06:41.279Z,31.00
2023-02-24T22:09:10.621Z,32.10
2023-02-24T22:11:41.006Z,28.40
2023-02-24T22:14:13.550Z,31.10
2023-02-24T22:16:42.284Z,27.27
2023-02-24T22:19:09.406Z,30.73
2023-02-24T22:21:37.042Z,29.30
2023-02-24T22:24:04.511Z,32.83
2023-02-24T22:26:32.587Z,28.63
2023-02-24T22:29:00.836Z,31.23
2023-02-24T22:31:31.697Z,30.40
2023-02-24T22:33:58.889Z,28.63
2023-02-24T22:36:33.568Z,30.40
2023-02-24T22:39:01.978Z,29.27
2023-02-24T22:41:32.910Z,29.67
2023-02-24T22:44:01.890Z,30.23
2023-02-24T22:46:33.433Z,27.80
2023-02-24T22:49:00.581Z,29.57
2023-02-24T22:51:28.652Z,27.10
2023-02-24T22:53:56.394Z,31.77
2023-02-24T22:56:27.926Z,31.50
2023-02-24T22:58:55.374Z,29.03
2023-02-24T23:01:32.060Z,26.90
2023-02-24T23:04:01.288Z,26.37
2023-02-24T23:06:28.608Z,24.93
2023-02-24T23:08:58.865Z,22.73
2023-02-24T23:11:32.276Z,25.93
2023-02-24T23:14:03.725Z,24.33
2023-02-24T23:16:35.224Z,25.60
2023-02-24T23:19:07.461Z,27.13
2023-02-24T23:21:42.392Z,25.17
2023-02-24T23:24:13.597Z,26.70
2023-02-24T23:26:57.999Z,25.60
2023-02-24T23:29:26.669Z,25.10
2023-02-24T23:31:54.188Z,21.73
2023-02-24T23:34:21.365Z,24.10
2023-02-24T23:36:48.732Z,25.53
2023-02-24T23:39:20.473Z,25.23
2023-02-24T23:41:47.766Z,27.17
2023-02-24T23:44:14.687Z,24.70
2023-02-24T23:46:42.073Z,27.30
2023-02-24T23:49:09.653Z,24.27
2023-02-24T23:51:47.733Z,24.13
2023-02-24T23:54:16.913Z,24.70
2023-02-24T23:56:43.890Z,26.17
2023-02-24T23:59:11.829Z,25.53
